Roseville, Illinois
Current Conditions -  °F | °C
As of 4:55 AM on Sunday 21 Dec 2014 (Local Time) from KMQB Reporting Station
Haze Haze  
Wind Chill: 30°   Ceiling: 2800
Heat Index: 36°   Visibility: 5mi
Dew Point: 34°   Wind: 7mph
Humidity: 94%   Direction: 170°S
Pressure: 30.18"   Gusts: NA
Location:  40.73°N, 90.66°W
Report Text: KMQB 211055Z AUTO 17006KT 5SM BR OVC028 02/01 A3018 RMK AO2 T00220013
Loading
Personal Weather Stations






























Interactive Weather Map New forecast layout! Learn more

10-Day Weather Forecast

Advertisements
Track Severe Weather on mobile